Time;durP1;ratioP1;P1;durP2;ratioP2;P2;SDS_P1;SDS_P2;PMS_P1;PMS_P2;Temp;Humidity;BMP_temperature;BMP_pressure;BME280_temperature;BME280_humidity;BME280_pressure;Samples;Min_cycle;Max_cycle;Signal;HPM_P1;HPM_P2
2022/02/09 00:07:35;;;;;;;4.03;3.72;;;7.80;99.90;;;;;;7393235;19;20344;-80
2022/02/09 00:11:27;;;;;;;4.85;4.32;;;7.80;99.90;;;;;;7418438;19;20372;-80
2022/02/09 00:18:52;;;;;;;4.63;4.18;;;7.80;99.90;;;;;;7420544;19;20358;-80
2022/02/09 01:55:36;;;;;;;2.95;2.75;;;7.90;99.90;;;;;;7386637;19;20875;-80
2022/02/09 01:58:28;;;;;;;3.58;2.90;;;7.90;99.90;;;;;;7403774;19;20385;-80
2022/02/09 02:00:59;;;;;;;4.70;2.95;;;8.00;99.90;;;;;;7381588;19;20690;-80
2022/02/09 02:04:03;;;;;;;3.67;3.25;;;8.00;99.90;;;;;;7399726;19;20353;-80
2022/02/09 02:06:31;;;;;;;2.60;2.40;;;8.00;99.90;;;;;;7338268;19;20312;-80
2022/02/09 02:09:40;;;;;;;3.13;2.87;;;8.00;99.90;;;;;;7395198;19;20313;-80
2022/02/09 02:12:36;;;;;;;5.53;2.80;;;8.00;99.90;;;;;;7321736;19;20338;-80
2022/02/09 02:15:34;;;;;;;2.80;2.55;;;8.00;99.90;;;;;;7398003;19;25292;-79
2022/02/09 02:17:51;;;;;;;2.88;2.60;;;8.00;99.90;;;;;;7293300;19;2004405;-80
2022/02/09 02:23:49;;;;;;;2.67;2.47;;;8.10;99.90;;;;;;7291259;19;2006977;-79
2022/02/09 02:26:27;;;;;;;3.03;2.73;;;8.10;99.90;;;;;;7267149;19;2004405;-79
2022/02/09 03:13:37;;;;;;;4.90;2.55;;;8.10;99.90;;;;;;7398693;19;20316;-79
2022/02/09 03:16:41;;;;;;;3.20;2.70;;;8.10;99.90;;;;;;7338785;19;20381;-79
2022/02/09 03:19:37;;;;;;;2.75;2.55;;;8.20;99.90;;;;;;7371987;19;20358;-79
2022/02/09 03:22:29;;;;;;;3.22;2.92;;;8.10;99.90;;;;;;7214105;19;2004700;-79
2022/02/09 03:25:41;;;;;;;3.30;3.00;;;8.00;99.90;;;;;;7397130;19;20353;-79
2022/02/09 03:31:12;;;;;;;3.00;2.80;;;8.10;99.90;;;;;;7371955;19;20360;-79
2022/02/09 03:48:50;;;;;;;2.92;2.63;;;8.10;99.90;;;;;;7391912;19;20337;-79
2022/02/09 03:54:52;;;;;;;2.78;2.58;;;8.20;99.90;;;;;;7275721;19;2004414;-79
2022/02/09 03:57:42;;;;;;;2.40;2.20;;;8.30;99.90;;;;;;7393997;19;20384;-80
2022/02/09 04:00:35;;;;;;;2.50;2.30;;;8.30;99.90;;;;;;7271063;19;2004437;-79
2022/02/09 04:06:18;;;;;;;2.45;2.30;;;8.30;99.90;;;;;;7372192;19;20337;-81
2022/02/09 04:08:54;;;;;;;2.20;2.10;;;8.30;99.90;;;;;;7399764;19;20344;-80
2022/02/09 04:11:42;;;;;;;2.50;2.30;;;8.30;99.90;;;;;;7348492;19;20389;-81
2022/02/09 04:40:53;;;;;;;2.67;2.47;;;8.30;99.90;;;;;;7409333;19;20364;-80
2022/02/09 04:54:43;;;;;;;2.60;2.40;;;8.40;99.90;;;;;;7348082;19;20352;-80
2022/02/09 05:19:09;;;;;;;2.92;2.63;;;8.20;99.90;;;;;;7282538;19;2004453;-80
2022/02/09 05:26:46;;;;;;;2.50;2.20;;;8.30;99.90;;;;;;7365334;19;20693;-80
2022/02/09 05:29:21;;;;;;;2.20;2.00;;;8.40;99.90;;;;;;7326618;19;20379;-79
2022/02/09 05:31:55;;;;;;;2.60;2.30;;;8.40;99.90;;;;;;7347038;19;20691;-80
2022/02/09 05:34:36;;;;;;;2.63;2.17;;;8.40;99.90;;;;;;7392401;19;20317;-80
2022/02/09 05:37:43;;;;;;;2.17;2.08;;;8.30;99.90;;;;;;7274100;19;2004838;-80
2022/02/09 05:40:51;;;;;;;2.80;2.50;;;8.40;99.90;;;;;;7397154;19;20989;-80
2022/02/09 05:43:27;;;;;;;2.25;2.05;;;8.10;99.90;;;;;;7223978;19;2004431;-79
2022/02/09 05:51:36;;;;;;;2.00;1.90;;;8.40;99.90;;;;;;7292424;19;2004382;-79
2022/02/09 05:56:37;;;;;;;2.20;2.00;;;8.30;99.90;;;;;;7368145;19;20308;-79
2022/02/09 06:01:38;;;;;;;2.55;2.08;;;8.40;99.90;;;;;;7392305;19;20333;-80
2022/02/09 06:04:12;;;;;;;2.50;2.30;;;8.30;99.90;;;;;;7374647;19;20316;-79
2022/02/09 06:06:38;;;;;;;1.88;1.77;;;8.40;99.90;;;;;;7396600;19;20343;-79
2022/02/09 06:09:12;;;;;;;3.03;2.03;;;8.30;99.90;;;;;;7360662;19;20336;-79
2022/02/09 06:12:08;;;;;;;2.05;1.90;;;8.40;99.90;;;;;;7378859;19;20712;-78
2022/02/09 06:19:54;;;;;;;2.58;1.95;;;8.40;99.90;;;;;;7291245;19;2005166;-79
2022/02/09 06:25:30;;;;;;;1.92;1.83;;;8.40;99.90;;;;;;7322868;19;20312;-79
2022/02/09 06:27:57;;;;;;;2.17;1.88;;;8.40;99.90;;;;;;7329985;19;20359;-80
2022/02/09 06:30:27;;;;;;;2.37;2.17;;;8.40;99.90;;;;;;7384830;19;20693;-80
2022/02/09 06:32:54;;;;;;;1.85;1.75;;;8.40;99.90;;;;;;7388977;19;20398;-81
2022/02/09 06:35:24;;;;;;;2.10;1.90;;;8.40;99.90;;;;;;7360995;19;20329;-80
2022/02/09 06:37:59;;;;;;;2.30;2.10;;;8.40;99.90;;;;;;7343606;19;20369;-80
2022/02/09 06:40:25;;;;;;;2.38;2.17;;;8.40;99.90;;;;;;7347295;19;20343;-81
2022/02/09 06:43:00;;;;;;;2.30;2.10;;;8.40;99.90;;;;;;7345357;19;20309;-80
2022/02/09 06:45:36;;;;;;;2.33;2.13;;;8.40;99.90;;;;;;7372607;19;20345;-79
2022/02/09 06:48:01;;;;;;;2.30;2.10;;;8.40;99.90;;;;;;7382307;19;20336;-80
2022/02/09 06:50:36;;;;;;;2.25;2.15;;;8.40;99.90;;;;;;7384625;19;20681;-81
2022/02/09 06:53:13;;;;;;;2.30;2.20;;;8.40;99.90;;;;;;7382996;19;21013;-80
2022/02/09 06:55:47;;;;;;;2.22;2.13;;;8.40;99.90;;;;;;7388878;19;20740;-81
2022/02/09 06:58:23;;;;;;;2.70;2.50;;;8.40;99.90;;;;;;7385727;19;20309;-81
2022/02/09 07:00:49;;;;;;;2.50;2.30;;;8.40;99.90;;;;;;7285138;19;2004502;-80
2022/02/09 07:17:05;;;;;;;2.95;2.75;;;8.10;99.90;;;;;;7385419;19;20334;-80
2022/02/09 07:19:32;;;;;;;2.47;2.27;;;8.30;99.90;;;;;;7363740;19;20321;-80
2022/02/09 07:21:58;;;;;;;4.05;3.50;;;8.40;99.90;;;;;;7385662;19;20406;-79
2022/02/09 07:24:26;;;;;;;2.60;2.40;;;8.50;99.90;;;;;;7386694;19;20324;-78
2022/02/09 07:29:36;;;;;;;2.50;2.30;;;8.40;99.90;;;;;;7388994;19;20324;-78
2022/02/09 07:32:02;;;;;;;2.85;2.63;;;8.10;99.90;;;;;;7386738;19;20356;-80
2022/02/09 07:34:28;;;;;;;2.57;2.37;;;8.20;99.90;;;;;;7384963;19;20333;-79
2022/02/09 07:36:54;;;;;;;2.50;2.30;;;8.30;99.90;;;;;;7385778;19;20328;-79
2022/02/09 07:39:22;;;;;;;2.78;2.55;;;8.40;99.90;;;;;;7390961;19;20848;-78
2022/02/09 07:41:50;;;;;;;2.63;2.28;;;8.30;99.90;;;;;;7390857;19;20339;-78
2022/02/09 07:44:33;;;;;;;2.80;2.58;;;8.30;99.90;;;;;;7400583;19;20690;-80
2022/02/09 07:47:10;;;;;;;2.97;2.67;;;8.30;99.90;;;;;;7291557;19;2004401;-80
2022/02/09 07:50:35;;;;;;;2.83;2.63;;;8.20;99.90;;;;;;7348494;19;20340;-79
2022/02/09 07:53:24;;;;;;;2.50;2.30;;;8.20;99.90;;;;;;7379962;19;20318;-79
2022/02/09 07:55:55;;;;;;;3.00;2.80;;;8.30;99.90;;;;;;7315948;19;20370;-82
2022/02/09 07:58:25;;;;;;;2.67;2.47;;;8.30;99.90;;;;;;7385923;19;20349;-81
2022/02/09 08:01:15;;;;;;;2.08;1.98;;;8.10;99.90;;;;;;7410158;19;20925;-80
2022/02/09 08:03:41;;;;;;;2.67;2.22;;;8.30;99.90;;;;;;7386252;19;20363;-78
2022/02/09 08:06:43;;;;;;;2.65;2.45;;;8.30;99.90;;;;;;7277972;19;2004590;-79
2022/02/09 08:09:41;;;;;;;2.53;2.33;;;8.40;99.90;;;;;;7344827;19;20337;-79
2022/02/09 08:23:15;;;;;;;2.92;2.67;;;8.40;99.90;;;;;;7399599;19;20355;-80
2022/02/09 08:34:13;;;;;;;2.67;2.47;;;8.50;99.90;;;;;;7403692;19;20459;-78
2022/02/09 08:37:21;;;;;;;3.25;2.70;;;8.60;99.90;;;;;;7387599;19;20343;-80
2022/02/09 08:40:24;;;;;;;3.22;2.97;;;8.40;99.90;;;;;;7321243;19;20389;-79
2022/02/09 08:43:39;;;;;;;4.82;3.08;;;8.50;99.90;;;;;;7244255;19;2004280;-79
2022/02/09 08:46:47;;;;;;;2.90;2.70;;;8.50;99.90;;;;;;7349331;19;20381;-80
2022/02/09 08:49:40;;;;;;;2.90;2.60;;;8.50;99.90;;;;;;7281918;19;2004257;-80
2022/02/09 08:52:50;;;;;;;3.17;2.88;;;8.60;99.90;;;;;;7353164;19;20587;-79
2022/02/09 08:55:22;;;;;;;2.60;2.40;;;8.60;99.90;;;;;;7227065;19;2004456;-78
2022/02/09 08:58:02;;;;;;;2.77;2.50;;;8.70;99.90;;;;;;7419620;19;20372;-79
2022/02/09 09:00:37;;;;;;;2.75;2.55;;;8.70;99.90;;;;;;7302659;19;2004509;-79
2022/02/09 09:58:36;;;;;;;3.10;1.83;;;9.00;99.90;;;;;;7295984;19;2007159;-80
2022/02/09 10:01:51;;;;;;;2.10;1.90;;;9.00;99.90;;;;;;7280462;19;2003944;-81
2022/02/09 10:05:15;;;;;;;2.45;2.20;;;9.00;99.90;;;;;;7235006;19;2004434;-81
2022/02/09 10:34:26;;;;;;;1.80;1.70;;;9.20;99.90;;;;;;7385285;19;20340;-82
2022/02/09 10:37:08;;;;;;;2.00;1.80;;;9.20;99.90;;;;;;7379539;19;20407;-80
2022/02/09 10:40:12;;;;;;;1.80;1.70;;;9.30;99.90;;;;;;7379573;19;20313;-79
2022/02/09 10:43:00;;;;;;;1.60;1.50;;;9.20;99.90;;;;;;7282259;19;2004245;-80
2022/02/09 10:45:48;;;;;;;1.80;1.70;;;9.40;99.90;;;;;;7248964;19;2004552;-80
2022/02/09 10:49:01;;;;;;;1.50;1.40;;;9.30;99.90;;;;;;7326414;19;20368;-80
2022/02/09 10:54:22;;;;;;;1.70;1.60;;;9.40;99.90;;;;;;7369414;19;20428;-78
2022/02/09 10:56:56;;;;;;;1.70;1.60;;;9.40;99.90;;;;;;7374358;19;20319;-79
2022/02/09 10:59:56;;;;;;;1.48;1.38;;;9.40;99.90;;;;;;7362210;19;20337;-84
2022/02/09 11:02:52;;;;;;;1.40;1.30;;;9.30;99.90;;;;;;7140366;19;2004313;-81
2022/02/09 11:05:21;;;;;;;1.50;1.40;;;9.30;99.90;;;;;;7374992;19;20343;-80
2022/02/09 11:07:48;;;;;;;1.55;1.45;;;9.30;99.90;;;;;;7400687;19;20304;-80
2022/02/09 11:10:14;;;;;;;1.20;1.20;;;9.30;99.90;;;;;;7392516;19;20308;-80
2022/02/09 11:12:44;;;;;;;1.80;1.40;;;9.30;99.90;;;;;;7397453;19;20958;-81
2022/02/09 11:15:21;;;;;;;1.40;1.30;;;9.30;99.90;;;;;;7390870;19;20336;-78
2022/02/09 11:17:55;;;;;;;1.42;1.33;;;9.40;99.90;;;;;;7330447;19;20308;-79
2022/02/09 11:20:32;;;;;;;1.70;1.60;;;9.40;99.90;;;;;;7389893;19;20301;-79
2022/02/09 11:23:10;;;;;;;1.40;1.30;;;9.30;99.90;;;;;;7383795;19;20331;-80
2022/02/09 11:25:54;;;;;;;1.37;1.27;;;9.30;99.90;;;;;;7385659;19;20681;-80
2022/02/09 11:28:38;;;;;;;1.67;1.58;;;9.30;99.90;;;;;;7383748;19;20448;-80
2022/02/09 11:31:34;;;;;;;1.70;1.60;;;9.30;99.90;;;;;;7301717;19;2026574;-81
2022/02/09 11:34:03;;;;;;;1.55;1.45;;;9.40;99.90;;;;;;7404477;19;20300;-79
2022/02/09 11:36:38;;;;;;;2.65;1.45;;;9.20;99.90;;;;;;7328529;19;20400;-81
2022/02/09 11:39:44;;;;;;;1.95;1.45;;;9.20;99.90;;;;;;7298222;19;2006027;-80
2022/02/09 11:42:40;;;;;;;1.40;1.30;;;9.20;99.90;;;;;;7292352;19;2004440;-80
2022/02/09 11:51:50;;;;;;;1.70;1.60;;;9.10;99.90;;;;;;7254898;19;2008155;-80
2022/02/09 11:58:39;;;;;;;1.80;1.70;;;9.20;99.90;;;;;;7188255;19;2004487;-80
2022/02/09 12:10:02;;;;;;;1.50;1.40;;;9.30;99.90;;;;;;7194884;19;2005080;-80
2022/02/09 12:12:42;;;;;;;2.23;1.70;;;9.40;99.90;;;;;;7398731;19;20696;-80
2022/02/09 12:15:28;;;;;;;1.10;1.10;;;9.40;99.90;;;;;;7397589;19;20328;-81
2022/02/09 12:18:27;;;;;;;1.30;1.20;;;9.50;99.90;;;;;;7297860;19;2006629;-80
2022/02/09 12:21:04;;;;;;;1.83;1.50;;;9.50;99.90;;;;;;7402803;19;20403;-79
2022/02/09 12:24:03;;;;;;;1.60;1.50;;;9.60;99.90;;;;;;7329208;19;20353;-82
2022/02/09 12:26:32;;;;;;;2.03;1.50;;;9.60;99.90;;;;;;7247859;19;2008969;-81
2022/02/09 12:29:00;;;;;;;1.40;1.30;;;9.50;99.90;;;;;;7404829;19;20353;-80
2022/02/09 12:31:40;;;;;;;1.70;1.60;;;9.60;99.90;;;;;;7332443;19;20308;-81
2022/02/09 12:34:23;;;;;;;1.23;1.13;;;9.60;99.90;;;;;;7405146;19;20317;-81
2022/02/09 12:37:31;;;;;;;1.30;1.20;;;9.60;99.90;;;;;;7281925;19;2004450;-81
2022/02/09 12:40:34;;;;;;;1.20;1.10;;;9.60;99.90;;;;;;7386791;19;20658;-80
2022/02/09 12:43:12;;;;;;;1.20;1.20;;;9.60;99.90;;;;;;7276155;19;2005935;-80
2022/02/09 12:45:46;;;;;;;1.40;1.30;;;9.60;99.90;;;;;;7373455;19;20348;-79
2022/02/09 12:48:29;;;;;;;1.23;1.23;;;9.70;99.90;;;;;;7339559;19;20321;-79
2022/02/09 12:51:06;;;;;;;1.20;1.15;;;9.70;99.90;;;;;;7292449;19;2004403;-81
2022/02/09 12:56:46;;;;;;;1.48;1.17;;;9.60;99.90;;;;;;7353967;19;20345;-81
2022/02/09 12:59:28;;;;;;;1.20;1.20;;;9.60;99.90;;;;;;7359746;19;20324;-81
2022/02/09 13:03:02;;;;;;;1.10;1.10;;;9.60;99.90;;;;;;7294133;19;2004434;-81
2022/02/09 13:06:21;;;;;;;1.10;1.10;;;9.60;99.90;;;;;;7180206;19;2004699;-80
2022/02/09 13:09:24;;;;;;;1.30;1.20;;;9.60;99.90;;;;;;7133090;19;2004580;-78
2022/02/09 13:12:14;;;;;;;1.35;1.27;;;9.50;99.90;;;;;;7401669;19;20677;-81
2022/02/09 13:15:23;;;;;;;1.65;1.40;;;9.50;99.90;;;;;;7325211;19;20333;-78
2022/02/09 13:18:27;;;;;;;1.10;1.10;;;9.60;99.90;;;;;;7300703;19;2004426;-81
2022/02/09 14:06:07;;;;;;;1.10;1.10;;;9.60;99.90;;;;;;7290070;19;2004491;-77
2022/02/09 14:58:42;;;;;;;1.55;1.45;;;9.20;99.90;;;;;;7336830;19;20378;-79
2022/02/09 15:01:19;;;;;;;1.55;1.45;;;9.20;99.90;;;;;;7348457;19;20309;-79
2022/02/09 15:04:19;;;;;;;1.50;1.40;;;9.30;99.90;;;;;;7220121;19;2004592;-79
2022/02/09 15:12:52;;;;;;;1.75;1.40;;;9.20;99.90;;;;;;7290054;19;20344;-79
2022/02/09 15:23:03;;;;;;;1.55;1.45;;;9.20;99.90;;;;;;7097586;19;2004447;-78
2022/02/09 15:25:54;;;;;;;1.50;1.40;;;9.20;99.90;;;;;;7345169;19;20874;-78
2022/02/09 15:28:44;;;;;;;1.50;1.40;;;9.20;99.90;;;;;;7344263;19;20376;-78
2022/02/09 15:35:10;;;;;;;1.85;1.75;;;9.20;99.90;;;;;;7272426;19;2004483;-79
2022/02/09 15:56:18;;;;;;;1.70;1.60;;;9.10;99.90;;;;;;7254608;19;2004542;-79
2022/02/09 16:05:41;;;;;;;1.50;1.40;;;9.10;99.90;;;;;;7287122;19;2004373;-77
2022/02/09 16:10:39;;;;;;;1.95;1.85;;;9.10;99.90;;;;;;7389526;19;20863;-79
2022/02/09 16:19:30;;;;;;;1.77;1.67;;;9.10;99.90;;;;;;7393011;19;20365;-78
2022/02/09 16:24:12;;;;;;;1.17;1.17;;;9.10;99.90;;;;;;7390899;19;20333;-78
2022/02/09 16:35:53;;;;;;;1.60;1.50;;;9.10;99.90;;;;;;7392677;19;20324;-78
2022/02/09 16:37:49;;;;;;;1.48;1.25;;;9.20;99.90;;;;;;7390888;19;20327;-78
2022/02/09 16:45:32;;;;;;;2.17;1.80;;;9.10;99.90;;;;;;7390874;19;20369;-78
2022/02/09 16:48:03;;;;;;;1.73;1.63;;;9.10;99.90;;;;;;7389684;19;20715;-78
2022/02/09 16:50:39;;;;;;;1.67;1.58;;;9.10;99.90;;;;;;7384813;19;20329;-78
2022/02/09 16:53:33;;;;;;;2.65;2.42;;;9.00;99.90;;;;;;7388530;19;20309;-78
2022/02/09 16:56:25;;;;;;;2.40;2.20;;;9.00;99.90;;;;;;7290643;19;2004539;-78
2022/02/09 17:18:49;;;;;;;1.77;1.67;;;9.10;99.90;;;;;;7356511;19;20360;-79
2022/02/09 17:21:26;;;;;;;1.70;1.60;;;9.00;99.90;;;;;;7178556;19;2004369;-79
2022/02/09 17:23:57;;;;;;;2.00;1.90;;;9.20;99.90;;;;;;7411757;19;20332;-79
2022/02/09 17:26:24;;;;;;;1.67;1.57;;;9.00;99.90;;;;;;7410545;19;20328;-81
2022/02/09 17:29:17;;;;;;;1.95;1.85;;;9.00;99.90;;;;;;7393939;19;20336;-78
2022/02/09 17:31:52;;;;;;;1.75;1.65;;;9.00;99.90;;;;;;7372066;19;20427;-80
2022/02/09 17:53:50;;;;;;;1.95;1.85;;;8.90;99.90;;;;;;7240193;19;2004424;-80
2022/02/09 17:56:53;;;;;;;1.90;1.80;;;9.00;99.90;;;;;;7337981;19;20745;-80
2022/02/09 17:59:57;;;;;;;3.78;2.10;;;9.00;99.90;;;;;;7381264;19;20368;-81
2022/02/09 18:03:28;;;;;;;1.77;1.63;;;9.00;99.90;;;;;;7286614;19;2004284;-79
2022/02/09 18:06:25;;;;;;;1.90;1.80;;;9.00;99.90;;;;;;7286277;19;2004429;-79
2022/02/09 18:09:47;;;;;;;1.92;1.83;;;8.80;99.90;;;;;;7369409;19;20324;-80
2022/02/09 18:29:54;;;;;;;2.00;1.80;;;9.00;99.90;;;;;;7398262;19;20356;-80
2022/02/09 19:05:56;;;;;;;2.33;2.13;;;8.90;99.90;;;;;;7365555;19;20329;-79
2022/02/09 19:08:50;;;;;;;2.20;2.00;;;8.90;99.90;;;;;;7361688;19;20409;-79
2022/02/09 19:14:25;;;;;;;2.80;1.83;;;9.00;99.90;;;;;;7326678;19;20345;-81
2022/02/09 19:20:58;;;;;;;2.20;2.00;;;8.90;99.90;;;;;;7250934;19;2004301;-80
2022/02/09 19:26:53;;;;;;;3.55;3.25;;;8.90;99.90;;;;;;7428180;19;20350;-82
2022/02/09 19:40:31;;;;;;;2.28;2.03;;;8.90;99.90;;;;;;7273540;19;2004444;-82
2022/02/09 21:12:27;;;;;;;1.90;1.80;;;8.60;99.90;;;;;;7433161;19;20346;-82
